Time;durP1;ratioP1;P1;durP2;ratioP2;P2;SDS_P1;SDS_P2;PMS_P1;PMS_P2;Temp;Humidity;BMP_temperature;BMP_pressure;BME280_temperature;BME280_humidity;BME280_pressure;Samples;Min_cycle;Max_cycle;Signal;HPM_P1;HPM_P2
2023/10/28 00:00:17;;;;;;;0.90;0.50;;;;;;;;;;4913516;29;20032;-80
2023/10/28 00:02:43;;;;;;;1.80;0.50;;;;;;;;;;4913905;29;20047;-80
2023/10/28 00:05:09;;;;;;;1.02;0.63;;;;;;;;;;4916651;29;20047;-81
2023/10/28 00:07:35;;;;;;;0.40;0.40;;;;;;;;;;4915754;29;20032;-80
2023/10/28 00:10:07;;;;;;;1.30;0.50;;;;;;;;;;4912585;29;20036;-79
2023/10/28 00:12:33;;;;;;;0.65;0.50;;;;;;;;;;4909998;29;20446;-80
2023/10/28 00:14:59;;;;;;;0.98;0.40;;;;;;;;;;4914470;29;20036;-80
2023/10/28 00:17:24;;;;;;;1.23;0.50;;;;;;;;;;4912459;29;20386;-80
2023/10/28 00:19:50;;;;;;;3.03;0.40;;;;;;;;;;4902895;29;20035;-82
2023/10/28 00:22:17;;;;;;;0.52;0.40;;;;;;;;;;4913915;29;20405;-80
2023/10/28 00:24:42;;;;;;;0.52;0.50;;;;;;;;;;4926922;29;20040;-81
2023/10/28 00:27:09;;;;;;;2.85;0.38;;;;;;;;;;4910928;29;20036;-81
2023/10/28 00:29:35;;;;;;;0.50;0.40;;;;;;;;;;4913331;29;20412;-81
2023/10/28 00:32:00;;;;;;;0.50;0.50;;;;;;;;;;4894205;29;20035;-79
2023/10/28 00:34:26;;;;;;;0.60;0.35;;;;;;;;;;4912788;29;20048;-82
2023/10/28 00:36:51;;;;;;;1.10;0.57;;;;;;;;;;4906603;29;20035;-81
2023/10/28 00:39:17;;;;;;;0.50;0.40;;;;;;;;;;4898681;29;20511;-80
2023/10/28 00:41:43;;;;;;;0.82;0.55;;;;;;;;;;4911616;29;20043;-80
2023/10/28 00:44:09;;;;;;;2.70;0.55;;;;;;;;;;4915371;29;20107;-80
2023/10/28 00:46:35;;;;;;;0.88;0.50;;;;;;;;;;4930498;29;20477;-79
2023/10/28 00:49:01;;;;;;;1.25;0.30;;;;;;;;;;4918095;29;20059;-80
2023/10/28 00:51:27;;;;;;;1.67;0.80;;;;;;;;;;4924910;29;20485;-82
2023/10/28 00:53:54;;;;;;;2.78;0.50;;;;;;;;;;4918460;29;20044;-80
2023/10/28 00:56:19;;;;;;;0.80;0.57;;;;;;;;;;4917924;29;20042;-81
2023/10/28 00:58:46;;;;;;;3.30;0.60;;;;;;;;;;4902642;29;20043;-82
2023/10/28 01:01:13;;;;;;;1.95;0.52;;;;;;;;;;4899922;29;20047;-81
2023/10/28 01:03:40;;;;;;;1.48;0.47;;;;;;;;;;4900238;29;20485;-81
2023/10/28 01:06:09;;;;;;;0.52;0.32;;;;;;;;;;4915515;29;20149;-81
2023/10/28 01:08:36;;;;;;;1.13;0.40;;;;;;;;;;4919065;29;20223;-81
2023/10/28 01:11:02;;;;;;;2.05;0.55;;;;;;;;;;4918185;29;20092;-80
2023/10/28 01:13:28;;;;;;;1.10;0.50;;;;;;;;;;4917263;29;20028;-80
2023/10/28 01:15:53;;;;;;;2.35;0.57;;;;;;;;;;4899266;29;20047;-82
2023/10/28 01:18:19;;;;;;;1.58;0.52;;;;;;;;;;4915174;29;20096;-81
2023/10/28 01:20:46;;;;;;;0.93;0.43;;;;;;;;;;4918395;29;20055;-81
2023/10/28 01:23:11;;;;;;;1.10;0.60;;;;;;;;;;4915311;29;20032;-82
2023/10/28 01:25:37;;;;;;;0.88;0.32;;;;;;;;;;4930126;29;20711;-80
2023/10/28 01:28:03;;;;;;;3.28;0.57;;;;;;;;;;4932954;29;20137;-79
2023/10/28 01:30:28;;;;;;;0.73;0.50;;;;;;;;;;4912055;29;20120;-81
2023/10/28 01:32:54;;;;;;;1.33;0.40;;;;;;;;;;4917799;29;20047;-81
2023/10/28 01:35:20;;;;;;;0.63;0.38;;;;;;;;;;4910152;29;20047;-81
2023/10/28 01:37:46;;;;;;;0.75;0.40;;;;;;;;;;4896849;29;20044;-81
2023/10/28 01:40:16;;;;;;;1.05;0.32;;;;;;;;;;4917581;29;20036;-80
2023/10/28 01:42:44;;;;;;;3.40;0.40;;;;;;;;;;4917439;29;20028;-81
2023/10/28 01:45:10;;;;;;;0.60;0.47;;;;;;;;;;4917000;29;20614;-81
2023/10/28 01:47:39;;;;;;;0.80;0.30;;;;;;;;;;4916671;29;20049;-80
2023/10/28 01:50:08;;;;;;;1.60;0.40;;;;;;;;;;4914796;29;20033;-82
2023/10/28 01:52:34;;;;;;;2.22;0.88;;;;;;;;;;4931463;29;20047;-80
2023/10/28 01:54:59;;;;;;;0.15;0.15;;;;;;;;;;4919085;29;20039;-80
2023/10/28 01:57:25;;;;;;;0.25;0.25;;;;;;;;;;4916358;29;20091;-80
2023/10/28 01:59:52;;;;;;;0.40;0.30;;;;;;;;;;4916708;29;20104;-82
2023/10/28 02:02:17;;;;;;;0.45;0.40;;;;;;;;;;4897813;29;20040;-81
2023/10/28 02:04:43;;;;;;;0.40;0.30;;;;;;;;;;4894296;29;20035;-82
2023/10/28 02:07:08;;;;;;;0.47;0.30;;;;;;;;;;4914540;29;20080;-79
2023/10/28 02:09:33;;;;;;;0.50;0.40;;;;;;;;;;4914749;29;20560;-81
2023/10/28 02:12:01;;;;;;;0.35;0.30;;;;;;;;;;4889770;29;20058;-82
2023/10/28 02:14:28;;;;;;;5.00;0.50;;;;;;;;;;4917092;29;20036;-82
2023/10/28 02:16:55;;;;;;;0.47;0.30;;;;;;;;;;4900860;29;20039;-80
2023/10/28 02:19:21;;;;;;;0.57;0.45;;;;;;;;;;4913334;29;20063;-80
2023/10/28 02:21:48;;;;;;;0.30;0.30;;;;;;;;;;4913424;29;20489;-80
2023/10/28 02:24:13;;;;;;;0.32;0.30;;;;;;;;;;4894325;29;20056;-81
2023/10/28 02:26:39;;;;;;;0.47;0.40;;;;;;;;;;4916753;29;20143;-81
2023/10/28 02:29:06;;;;;;;0.43;0.28;;;;;;;;;;4914789;29;20028;-81
2023/10/28 02:31:32;;;;;;;0.50;0.40;;;;;;;;;;4916024;29;20032;-81
2023/10/28 02:33:57;;;;;;;0.90;0.45;;;;;;;;;;4917402;29;20042;-82
2023/10/28 02:36:23;;;;;;;0.57;0.22;;;;;;;;;;4931602;29;20040;-80
2023/10/28 02:38:48;;;;;;;0.60;0.30;;;;;;;;;;4916787;29;20794;-81
2023/10/28 02:41:14;;;;;;;0.30;0.30;;;;;;;;;;4916530;29;20044;-81
2023/10/28 02:43:40;;;;;;;0.20;0.20;;;;;;;;;;4914140;29;20036;-80
2023/10/28 02:46:06;;;;;;;0.25;0.20;;;;;;;;;;4915545;29;20072;-81
2023/10/28 02:48:32;;;;;;;0.47;0.40;;;;;;;;;;4906088;29;20040;-79
2023/10/28 02:51:04;;;;;;;0.93;0.20;;;;;;;;;;4911113;29;20032;-80
2023/10/28 02:53:30;;;;;;;0.30;0.10;;;;;;;;;;4916410;29;20131;-80
2023/10/28 02:55:56;;;;;;;0.45;0.20;;;;;;;;;;4899567;29;20623;-80
2023/10/28 02:58:21;;;;;;;0.40;0.10;;;;;;;;;;4916102;29;20063;-80
2023/10/28 03:00:48;;;;;;;0.20;0.20;;;;;;;;;;4913691;29;20092;-79
2023/10/28 03:03:13;;;;;;;0.22;0.20;;;;;;;;;;4911474;29;20140;-81
2023/10/28 03:05:39;;;;;;;0.98;0.22;;;;;;;;;;4914212;29;20040;-80
2023/10/28 03:08:04;;;;;;;0.73;0.35;;;;;;;;;;4917403;29;20032;-80
2023/10/28 03:10:30;;;;;;;0.40;0.35;;;;;;;;;;4913519;29;20616;-80
2023/10/28 03:12:55;;;;;;;0.50;0.40;;;;;;;;;;4900387;29;20039;-80
2023/10/28 03:15:21;;;;;;;1.13;0.30;;;;;;;;;;4917019;29;20489;-82
2023/10/28 03:17:47;;;;;;;0.22;0.15;;;;;;;;;;4916390;29;20454;-79
2023/10/28 03:20:18;;;;;;;0.45;0.20;;;;;;;;;;4914270;29;20036;-79
2023/10/28 03:22:44;;;;;;;0.32;0.20;;;;;;;;;;4895162;29;20044;-80
2023/10/28 03:25:10;;;;;;;0.20;0.20;;;;;;;;;;4915264;29;20028;-80
2023/10/28 03:27:36;;;;;;;0.82;0.28;;;;;;;;;;4922596;29;20069;-80
2023/10/28 03:30:01;;;;;;;0.40;0.20;;;;;;;;;;4894526;29;20040;-80
2023/10/28 03:32:27;;;;;;;1.13;0.40;;;;;;;;;;4910725;29;20560;-79
2023/10/28 03:34:52;;;;;;;0.52;0.22;;;;;;;;;;4912744;29;20102;-80
2023/10/28 03:37:18;;;;;;;0.70;0.50;;;;;;;;;;4915457;29;20071;-82
2023/10/28 03:39:44;;;;;;;0.90;0.45;;;;;;;;;;4913708;29;20048;-80
2023/10/28 03:42:11;;;;;;;0.40;0.30;;;;;;;;;;4913629;29;20512;-81
2023/10/28 03:44:37;;;;;;;0.98;0.30;;;;;;;;;;4910280;29;20044;-80
2023/10/28 03:47:04;;;;;;;1.13;0.50;;;;;;;;;;4916024;29;20128;-82
2023/10/28 03:49:30;;;;;;;0.45;0.30;;;;;;;;;;4914653;29;20119;-82
2023/10/28 03:51:55;;;;;;;0.77;0.47;;;;;;;;;;4914985;29;20226;-81
2023/10/28 03:54:21;;;;;;;0.20;0.20;;;;;;;;;;4910761;29;20051;-81
2023/10/28 03:56:47;;;;;;;0.50;0.40;;;;;;;;;;4914014;29;20037;-81
2023/10/28 03:59:13;;;;;;;1.20;0.55;;;;;;;;;;4899551;29;20059;-81
2023/10/28 04:01:40;;;;;;;0.35;0.30;;;;;;;;;;4911939;29;20055;-81
2023/10/28 04:04:07;;;;;;;1.25;0.30;;;;;;;;;;4910885;29;20028;-79
2023/10/28 04:06:32;;;;;;;0.20;0.20;;;;;;;;;;4911226;29;20032;-80
2023/10/28 04:08:59;;;;;;;0.30;0.30;;;;;;;;;;4914990;29;20047;-79
2023/10/28 04:11:25;;;;;;;0.38;0.38;;;;;;;;;;4893360;29;20095;-79
2023/10/28 04:13:51;;;;;;;1.63;0.60;;;;;;;;;;4898327;29;20054;-79
2023/10/28 04:16:17;;;;;;;0.50;0.50;;;;;;;;;;4908263;29;20040;-80
2023/10/28 04:18:43;;;;;;;1.17;0.60;;;;;;;;;;4912509;29;20044;-79
2023/10/28 04:21:08;;;;;;;0.43;0.43;;;;;;;;;;4913350;29;20063;-79
2023/10/28 04:23:34;;;;;;;0.65;0.60;;;;;;;;;;4913460;29;20043;-80
2023/10/28 04:25:59;;;;;;;1.13;0.52;;;;;;;;;;4913621;29;20043;-81
2023/10/28 04:28:25;;;;;;;0.77;0.50;;;;;;;;;;4915306;29;20040;-80
2023/10/28 04:30:57;;;;;;;0.75;0.63;;;;;;;;;;4912215;29;20127;-80
2023/10/28 04:33:26;;;;;;;0.90;0.68;;;;;;;;;;4909323;29;20040;-79
2023/10/28 04:35:53;;;;;;;0.65;0.60;;;;;;;;;;4914311;29;20449;-81
2023/10/28 04:38:19;;;;;;;0.70;0.70;;;;;;;;;;4915064;29;20036;-80
2023/10/28 04:40:45;;;;;;;4.05;1.75;;;;;;;;;;4914462;29;20068;-80
2023/10/28 04:43:11;;;;;;;1.35;0.90;;;;;;;;;;4906511;29;20119;-79
2023/10/28 04:45:41;;;;;;;3.50;0.70;;;;;;;;;;4906918;29;20518;-79
2023/10/28 04:48:09;;;;;;;0.82;0.60;;;;;;;;;;4913139;29;20564;-80
2023/10/28 04:50:34;;;;;;;0.77;0.70;;;;;;;;;;4913993;29;20055;-81
2023/10/28 04:53:01;;;;;;;1.20;0.90;;;;;;;;;;4911959;29;20028;-80
2023/10/28 04:55:26;;;;;;;0.95;0.80;;;;;;;;;;4893615;29;20495;-79
2023/10/28 04:57:52;;;;;;;2.35;0.60;;;;;;;;;;4911255;29;20572;-79
2023/10/28 05:00:19;;;;;;;1.30;0.93;;;;;;;;;;4913838;29;20051;-81
2023/10/28 05:02:45;;;;;;;0.80;0.80;;;;;;;;;;4913250;29;20490;-79
2023/10/28 05:05:10;;;;;;;2.13;1.20;;;;;;;;;;4913719;29;20035;-81
2023/10/28 05:07:36;;;;;;;0.95;0.77;;;;;;;;;;4915502;29;20051;-78
2023/10/28 05:10:03;;;;;;;3.30;0.80;;;;;;;;;;4914437;29;20563;-79
2023/10/28 05:12:28;;;;;;;0.77;0.47;;;;;;;;;;4912941;29;20032;-80
2023/10/28 05:14:54;;;;;;;0.70;0.70;;;;;;;;;;4910103;29;20040;-79
2023/10/28 05:17:20;;;;;;;0.80;0.70;;;;;;;;;;4912825;29;20053;-79
2023/10/28 05:19:45;;;;;;;0.90;0.70;;;;;;;;;;4914512;29;20040;-79
2023/10/28 05:22:11;;;;;;;1.60;1.10;;;;;;;;;;4912997;29;20044;-81
2023/10/28 05:24:37;;;;;;;1.63;0.70;;;;;;;;;;4922365;29;20037;-79
2023/10/28 05:27:03;;;;;;;2.35;1.40;;;;;;;;;;4909845;29;20122;-82
2023/10/28 05:29:29;;;;;;;1.25;0.75;;;;;;;;;;4915284;29;20036;-82
2023/10/28 05:31:56;;;;;;;3.05;1.50;;;;;;;;;;4914577;29;20064;-80
2023/10/28 05:34:23;;;;;;;1.35;1.02;;;;;;;;;;4914788;29;20072;-82
2023/10/28 05:36:50;;;;;;;1.30;1.02;;;;;;;;;;4913128;29;20463;-81
2023/10/28 05:39:16;;;;;;;2.80;1.23;;;;;;;;;;4902842;29;20028;-82
2023/10/28 05:41:42;;;;;;;0.73;0.60;;;;;;;;;;4916076;29;20116;-81
2023/10/28 05:44:07;;;;;;;1.27;0.90;;;;;;;;;;4915892;29;20621;-81
2023/10/28 05:46:33;;;;;;;3.50;1.40;;;;;;;;;;4917915;29;20024;-82
2023/10/28 05:49:00;;;;;;;2.60;1.70;;;;;;;;;;4917713;29;20039;-83
2023/10/28 05:51:25;;;;;;;2.28;1.60;;;;;;;;;;4901711;29;20032;-81
2023/10/28 05:53:51;;;;;;;1.50;1.10;;;;;;;;;;4914711;29;20119;-81
2023/10/28 05:56:17;;;;;;;1.92;1.30;;;;;;;;;;4913198;29;20513;-81
2023/10/28 05:58:43;;;;;;;3.28;1.60;;;;;;;;;;4929405;29;20103;-82
2023/10/28 06:01:09;;;;;;;2.45;1.67;;;;;;;;;;4913235;29;20561;-81
2023/10/28 06:03:34;;;;;;;2.30;1.63;;;;;;;;;;4893870;29;20442;-82
2023/10/28 06:06:00;;;;;;;2.92;1.92;;;;;;;;;;4914563;29;20039;-82
2023/10/28 06:08:26;;;;;;;2.45;1.70;;;;;;;;;;4908690;29;20667;-81
2023/10/28 06:10:52;;;;;;;1.48;1.13;;;;;;;;;;4913402;29;20047;-81
2023/10/28 06:13:18;;;;;;;4.53;2.60;;;;;;;;;;4916535;29;20039;-82
2023/10/28 06:15:44;;;;;;;2.22;1.42;;;;;;;;;;4929051;29;20048;-82
2023/10/28 06:18:11;;;;;;;1.30;1.05;;;;;;;;;;4914109;29;20123;-82
2023/10/28 06:20:37;;;;;;;1.20;0.90;;;;;;;;;;4911828;29;20036;-82
2023/10/28 06:23:06;;;;;;;1.42;1.10;;;;;;;;;;4915689;29;20048;-83
2023/10/28 06:25:32;;;;;;;4.57;1.00;;;;;;;;;;4914859;29;20048;-82
2023/10/28 06:27:57;;;;;;;2.65;1.70;;;;;;;;;;4916847;29;20047;-83
2023/10/28 06:30:23;;;;;;;2.92;1.90;;;;;;;;;;4916440;29;20421;-82
2023/10/28 06:32:48;;;;;;;3.08;1.77;;;;;;;;;;4915895;29;20040;-82
2023/10/28 06:35:16;;;;;;;1.10;1.00;;;;;;;;;;4909366;29;20044;-81
2023/10/28 06:37:41;;;;;;;1.20;1.10;;;;;;;;;;4913013;29;20043;-81
2023/10/28 06:40:10;;;;;;;2.13;1.13;;;;;;;;;;4914564;29;20040;-81
2023/10/28 06:42:37;;;;;;;2.38;1.10;;;;;;;;;;4915102;29;20123;-82
2023/10/28 06:45:03;;;;;;;1.08;0.70;;;;;;;;;;4900285;29;20473;-81
2023/10/28 06:47:29;;;;;;;1.27;0.90;;;;;;;;;;4912712;29;20044;-81
2023/10/28 06:49:54;;;;;;;1.00;0.90;;;;;;;;;;4911624;29;20039;-82
2023/10/28 06:52:22;;;;;;;1.38;0.73;;;;;;;;;;4914083;29;20466;-83
2023/10/28 06:54:47;;;;;;;1.70;0.80;;;;;;;;;;4917459;29;20044;-83
2023/10/28 06:57:13;;;;;;;1.08;0.80;;;;;;;;;;4915828;29;20054;-82
2023/10/28 06:59:38;;;;;;;1.15;0.73;;;;;;;;;;4915816;29;20082;-82
2023/10/28 07:02:04;;;;;;;0.82;0.68;;;;;;;;;;4916170;29;20039;-83
2023/10/28 07:04:30;;;;;;;1.10;0.90;;;;;;;;;;4915226;29;20035;-83
2023/10/28 07:06:55;;;;;;;1.00;0.80;;;;;;;;;;4916542;29;20032;-83
2023/10/28 07:09:21;;;;;;;1.58;1.08;;;;;;;;;;4919790;29;20040;-82
2023/10/28 07:11:46;;;;;;;2.03;1.15;;;;;;;;;;4914552;29;20068;-83
2023/10/28 07:14:12;;;;;;;2.45;0.90;;;;;;;;;;4916053;29;20047;-83
2023/10/28 07:16:38;;;;;;;1.38;0.70;;;;;;;;;;4914657;29;20046;-83
2023/10/28 07:19:04;;;;;;;1.13;0.85;;;;;;;;;;4912375;29;20123;-82
2023/10/28 07:21:29;;;;;;;1.52;0.90;;;;;;;;;;4917146;29;20075;-82
2023/10/28 07:23:54;;;;;;;1.33;1.10;;;;;;;;;;4916926;29;20036;-82
2023/10/28 07:26:20;;;;;;;2.40;0.88;;;;;;;;;;4913215;29;20525;-83
2023/10/28 07:28:46;;;;;;;3.20;0.80;;;;;;;;;;4916877;29;20516;-83
2023/10/28 07:31:11;;;;;;;2.45;0.70;;;;;;;;;;4916015;29;20037;-82
2023/10/28 07:33:37;;;;;;;4.95;0.82;;;;;;;;;;4914912;29;20040;-82
2023/10/28 07:36:04;;;;;;;2.03;0.70;;;;;;;;;;4916115;29;20044;-84
2023/10/28 07:38:30;;;;;;;0.82;0.70;;;;;;;;;;4916353;29;20039;-82
2023/10/28 07:40:55;;;;;;;0.68;0.68;;;;;;;;;;4916286;29;20422;-83
2023/10/28 07:43:21;;;;;;;0.82;0.70;;;;;;;;;;4916242;29;20529;-84
2023/10/28 07:45:46;;;;;;;2.20;1.20;;;;;;;;;;4933220;29;20051;-86
2023/10/28 07:48:12;;;;;;;2.35;1.20;;;;;;;;;;4901792;29;20032;-83
2023/10/28 07:50:39;;;;;;;1.20;0.90;;;;;;;;;;4905166;29;20043;-85
2023/10/28 07:53:05;;;;;;;1.35;0.80;;;;;;;;;;4915119;29;20071;-84
2023/10/28 07:55:31;;;;;;;1.85;0.73;;;;;;;;;;4931610;29;20032;-86
2023/10/28 07:57:56;;;;;;;0.73;0.63;;;;;;;;;;4915787;29;20060;-84
2023/10/28 08:00:23;;;;;;;3.33;1.00;;;;;;;;;;4917317;29;20412;-84
2023/10/28 08:02:49;;;;;;;1.15;0.77;;;;;;;;;;4918072;29;20457;-84
2023/10/28 08:05:15;;;;;;;0.75;0.50;;;;;;;;;;4916595;29;20020;-84
2023/10/28 08:07:41;;;;;;;2.65;0.82;;;;;;;;;;4897092;29;20474;-84
2023/10/28 08:10:07;;;;;;;2.50;0.80;;;;;;;;;;4915141;29;20103;-83
2023/10/28 08:12:33;;;;;;;0.60;0.60;;;;;;;;;;4915504;29;20063;-84
2023/10/28 08:15:02;;;;;;;1.45;1.15;;;;;;;;;;4914547;29;20490;-83
2023/10/28 08:17:31;;;;;;;1.80;1.05;;;;;;;;;;4916693;29;20047;-83
2023/10/28 08:19:56;;;;;;;2.40;1.10;;;;;;;;;;4916674;29;20044;-84
2023/10/28 08:22:22;;;;;;;1.75;1.08;;;;;;;;;;4917066;29;20063;-84
2023/10/28 08:24:48;;;;;;;1.45;1.15;;;;;;;;;;4919279;29;20028;-84
2023/10/28 08:27:13;;;;;;;2.33;0.98;;;;;;;;;;4919466;29;20040;-85
2023/10/28 08:29:39;;;;;;;1.25;1.00;;;;;;;;;;4915755;29;20047;-83
2023/10/28 08:32:05;;;;;;;1.25;0.90;;;;;;;;;;4917375;29;20111;-83
2023/10/28 08:34:31;;;;;;;1.42;1.00;;;;;;;;;;4914115;29;20096;-84
2023/10/28 08:36:56;;;;;;;1.30;0.90;;;;;;;;;;4917498;29;20044;-83
2023/10/28 08:39:23;;;;;;;0.98;0.77;;;;;;;;;;4912486;29;20025;-84
2023/10/28 08:41:50;;;;;;;0.50;0.50;;;;;;;;;;4914272;29;20042;-84
2023/10/28 08:44:20;;;;;;;0.75;0.60;;;;;;;;;;4916618;29;20032;-85
2023/10/28 08:46:48;;;;;;;1.38;0.93;;;;;;;;;;4915168;29;20036;-84
2023/10/28 08:49:15;;;;;;;0.80;0.50;;;;;;;;;;4915352;29;20036;-85
2023/10/28 08:51:47;;;;;;;2.70;1.10;;;;;;;;;;4915617;29;20051;-85
2023/10/28 08:54:16;;;;;;;0.85;0.65;;;;;;;;;;4903823;29;20032;-85
2023/10/28 08:56:43;;;;;;;1.23;0.60;;;;;;;;;;4914891;29;20028;-84
2023/10/28 08:59:09;;;;;;;1.05;0.77;;;;;;;;;;4917628;29;20040;-83
2023/10/28 09:01:36;;;;;;;0.68;0.40;;;;;;;;;;4912180;29;20047;-83
2023/10/28 09:04:04;;;;;;;0.50;0.50;;;;;;;;;;4915838;29;20087;-85
2023/10/28 09:06:30;;;;;;;0.75;0.50;;;;;;;;;;4911158;29;20099;-83
2023/10/28 09:08:57;;;;;;;0.40;0.40;;;;;;;;;;4916545;29;20028;-84
2023/10/28 09:11:23;;;;;;;0.52;0.50;;;;;;;;;;4915226;29;20032;-84
2023/10/28 09:13:49;;;;;;;0.98;0.60;;;;;;;;;;4919881;29;20504;-83
2023/10/28 09:16:14;;;;;;;0.40;0.40;;;;;;;;;;4920308;29;20064;-84
2023/10/28 09:18:41;;;;;;;0.57;0.50;;;;;;;;;;4919118;29;20042;-85
2023/10/28 09:21:09;;;;;;;0.30;0.25;;;;;;;;;;4918939;29;20032;-84
2023/10/28 09:23:39;;;;;;;0.38;0.30;;;;;;;;;;4917501;29;20039;-84
2023/10/28 09:26:05;;;;;;;0.40;0.28;;;;;;;;;;4912589;29;20071;-84
2023/10/28 09:28:31;;;;;;;1.67;0.30;;;;;;;;;;4917996;29;20119;-84
2023/10/28 09:30:59;;;;;;;0.77;0.50;;;;;;;;;;4917955;29;20036;-84
2023/10/28 09:33:25;;;;;;;0.90;0.50;;;;;;;;;;4915620;29;20076;-84
2023/10/28 09:35:55;;;;;;;1.00;0.60;;;;;;;;;;4917569;29;20040;-84
2023/10/28 09:38:22;;;;;;;3.08;0.40;;;;;;;;;;4919723;29;20147;-84
2023/10/28 09:40:48;;;;;;;0.50;0.50;;;;;;;;;;4921086;29;20050;-85
2023/10/28 09:43:15;;;;;;;0.88;0.40;;;;;;;;;;4920396;29;20028;-84
2023/10/28 09:45:49;;;;;;;1.65;0.30;;;;;;;;;;4917839;29;20043;-85
2023/10/28 09:48:18;;;;;;;0.63;0.35;;;;;;;;;;4914996;29;20115;-84
2023/10/28 09:50:50;;;;;;;0.40;0.40;;;;;;;;;;4917332;29;20036;-84
2023/10/28 09:53:17;;;;;;;0.90;0.50;;;;;;;;;;4919130;29;20040;-84
2023/10/28 09:55:45;;;;;;;0.75;0.40;;;;;;;;;;4921363;29;20036;-83
2023/10/28 09:58:28;;;;;;;0.35;0.35;;;;;;;;;;4923347;29;20044;-83
2023/10/28 10:01:03;;;;;;;0.73;0.40;;;;;;;;;;4922812;29;20028;-83
2023/10/28 10:03:53;;;;;;;0.77;0.32;;;;;;;;;;4934308;29;20029;-83
2023/10/28 10:06:21;;;;;;;0.50;0.30;;;;;;;;;;4906021;29;20496;-84
2023/10/28 10:08:52;;;;;;;1.15;0.50;;;;;;;;;;4921712;29;20490;-83
2023/10/28 10:11:25;;;;;;;0.60;0.40;;;;;;;;;;4916953;29;20331;-84
2023/10/28 10:13:51;;;;;;;0.80;0.40;;;;;;;;;;4922635;29;20099;-84
2023/10/28 10:16:41;;;;;;;0.55;0.35;;;;;;;;;;4920298;29;20040;-83
2023/10/28 10:19:11;;;;;;;0.52;0.20;;;;;;;;;;4917152;29;20032;-83
2023/10/28 10:21:37;;;;;;;2.47;0.95;;;;;;;;;;4919885;29;20515;-83
2023/10/28 10:24:04;;;;;;;0.25;0.25;;;;;;;;;;4918401;29;20107;-83
2023/10/28 10:26:34;;;;;;;0.50;0.32;;;;;;;;;;4917288;29;20092;-84
2023/10/28 10:29:03;;;;;;;0.35;0.22;;;;;;;;;;4919017;29;20473;-84
2023/10/28 10:31:34;;;;;;;5.18;1.15;;;;;;;;;;4914682;29;20116;-83
2023/10/28 10:34:01;;;;;;;2.15;0.52;;;;;;;;;;4918446;29;20104;-83
2023/10/28 10:36:28;;;;;;;0.55;0.30;;;;;;;;;;4915076;29;20066;-83
2023/10/28 10:38:54;;;;;;;4.78;1.20;;;;;;;;;;4916038;29;20039;-83
2023/10/28 10:41:30;;;;;;;5.32;1.27;;;;;;;;;;4916763;29;20028;-82
2023/10/28 10:43:56;;;;;;;2.15;0.80;;;;;;;;;;4917352;29;20087;-83
2023/10/28 10:46:22;;;;;;;6.05;1.33;;;;;;;;;;4917564;29;20067;-83
2023/10/28 10:48:47;;;;;;;0.88;0.30;;;;;;;;;;4916390;29;20040;-83
2023/10/28 10:51:15;;;;;;;0.93;0.40;;;;;;;;;;4915341;29;20036;-84
2023/10/28 10:53:44;;;;;;;1.38;0.40;;;;;;;;;;4919478;29;20048;-84
2023/10/28 10:56:22;;;;;;;2.47;0.60;;;;;;;;;;4905377;29;20119;-84
2023/10/28 10:58:47;;;;;;;2.22;0.57;;;;;;;;;;4913205;29;20492;-83
2023/10/28 11:01:13;;;;;;;1.55;0.57;;;;;;;;;;4916659;29;20043;-83
2023/10/28 11:03:39;;;;;;;0.50;0.30;;;;;;;;;;4914586;29;20449;-84
2023/10/28 11:06:06;;;;;;;1.77;0.40;;;;;;;;;;4914384;29;20050;-83
2023/10/28 11:08:31;;;;;;;1.90;0.50;;;;;;;;;;4915162;29;20055;-84
2023/10/28 11:10:57;;;;;;;0.98;0.35;;;;;;;;;;4914599;29;20539;-84
2023/10/28 11:13:23;;;;;;;2.08;0.40;;;;;;;;;;4917694;29;20115;-83
2023/10/28 11:15:51;;;;;;;0.57;0.30;;;;;;;;;;4915715;29;20490;-84
2023/10/28 11:18:16;;;;;;;1.00;0.60;;;;;;;;;;4914206;29;20039;-82
2023/10/28 11:20:42;;;;;;;0.70;0.30;;;;;;;;;;4915043;29;20032;-83
2023/10/28 11:23:08;;;;;;;0.63;0.38;;;;;;;;;;4916861;29;20036;-82
2023/10/28 11:25:34;;;;;;;1.00;0.35;;;;;;;;;;4918359;29;20115;-80
2023/10/28 11:28:10;;;;;;;1.25;0.60;;;;;;;;;;4916318;29;20600;-81
2023/10/28 11:30:37;;;;;;;0.30;0.30;;;;;;;;;;4914827;29;20051;-81
2023/10/28 11:33:09;;;;;;;1.17;0.40;;;;;;;;;;4916864;29;20481;-80
2023/10/28 11:35:34;;;;;;;1.05;0.30;;;;;;;;;;4913629;29;20047;-81
2023/10/28 11:38:03;;;;;;;1.42;0.50;;;;;;;;;;4917919;29;20032;-82
2023/10/28 11:40:29;;;;;;;0.63;0.25;;;;;;;;;;4917981;29;20064;-84
2023/10/28 11:42:54;;;;;;;1.00;0.50;;;;;;;;;;4917661;29;20032;-81
2023/10/28 11:45:20;;;;;;;0.75;0.50;;;;;;;;;;4918921;29;20964;-82
2023/10/28 11:47:46;;;;;;;1.85;0.40;;;;;;;;;;4913283;29;20028;-81
2023/10/28 11:50:11;;;;;;;0.98;0.38;;;;;;;;;;4915389;29;20572;-84
2023/10/28 11:52:37;;;;;;;1.13;0.47;;;;;;;;;;4912628;29;20088;-82
2023/10/28 11:55:05;;;;;;;1.88;0.60;;;;;;;;;;4919208;29;20056;-80
2023/10/28 11:57:32;;;;;;;0.52;0.30;;;;;;;;;;4919844;29;20091;-80
2023/10/28 11:59:57;;;;;;;1.33;0.50;;;;;;;;;;4917048;29;20047;-80
2023/10/28 12:02:23;;;;;;;1.95;0.50;;;;;;;;;;4916582;29;20028;-81
2023/10/28 12:04:48;;;;;;;2.03;0.55;;;;;;;;;;4913596;29;20462;-85
2023/10/28 12:07:14;;;;;;;1.33;0.40;;;;;;;;;;4921306;29;20044;-84
2023/10/28 12:09:39;;;;;;;2.92;0.60;;;;;;;;;;4929676;29;20079;-85
2023/10/28 12:12:06;;;;;;;0.75;0.35;;;;;;;;;;4918655;29;20043;-84
2023/10/28 12:14:31;;;;;;;1.08;0.50;;;;;;;;;;4918916;29;20036;-84
2023/10/28 12:16:57;;;;;;;0.82;0.50;;;;;;;;;;4918320;29;20119;-84
2023/10/28 12:19:23;;;;;;;1.83;0.55;;;;;;;;;;4919073;29;20104;-84
2023/10/28 12:21:49;;;;;;;1.65;0.60;;;;;;;;;;4904890;29;20035;-85
2023/10/28 12:24:15;;;;;;;1.10;0.50;;;;;;;;;;4928210;29;20032;-84
2023/10/28 12:26:40;;;;;;;1.05;0.40;;;;;;;;;;4917932;29;20122;-84
2023/10/28 12:29:06;;;;;;;0.70;0.40;;;;;;;;;;4915952;29;20032;-84
2023/10/28 12:31:34;;;;;;;2.05;0.50;;;;;;;;;;4914093;29;20064;-85
2023/10/28 12:34:01;;;;;;;1.85;0.50;;;;;;;;;;4913893;29;20470;-84
2023/10/28 12:36:27;;;;;;;1.65;0.50;;;;;;;;;;4917314;29;20063;-85
2023/10/28 12:38:52;;;;;;;3.20;0.60;;;;;;;;;;4917478;29;20059;-85
2023/10/28 12:41:18;;;;;;;0.55;0.40;;;;;;;;;;4917068;29;20040;-85
2023/10/28 12:43:43;;;;;;;0.77;0.50;;;;;;;;;;4915218;29;20033;-84
2023/10/28 12:46:11;;;;;;;1.92;0.80;;;;;;;;;;4920129;29;20032;-84
2023/10/28 12:48:36;;;;;;;1.90;0.60;;;;;;;;;;4918684;29;20087;-84
2023/10/28 12:51:02;;;;;;;2.38;0.55;;;;;;;;;;4920759;29;20111;-85
2023/10/28 12:53:29;;;;;;;2.50;0.50;;;;;;;;;;4920160;29;20040;-85
2023/10/28 12:55:55;;;;;;;0.90;0.47;;;;;;;;;;4919293;29;20044;-85
2023/10/28 12:58:21;;;;;;;1.83;0.50;;;;;;;;;;4922290;29;20032;-85
2023/10/28 13:00:47;;;;;;;1.50;0.60;;;;;;;;;;4916806;29;20062;-84
2023/10/28 13:03:13;;;;;;;1.90;0.50;;;;;;;;;;4921556;29;20409;-85
2023/10/28 13:05:39;;;;;;;1.48;0.52;;;;;;;;;;4918388;29;20495;-85
2023/10/28 13:08:04;;;;;;;1.73;0.57;;;;;;;;;;4918026;29;20035;-85
2023/10/28 13:10:30;;;;;;;2.95;0.68;;;;;;;;;;4910044;29;20066;-84
2023/10/28 13:12:56;;;;;;;2.60;0.60;;;;;;;;;;4920543;29;20453;-85
2023/10/28 13:15:22;;;;;;;1.17;0.50;;;;;;;;;;4919591;29;20046;-85
2023/10/28 13:17:48;;;;;;;0.73;0.40;;;;;;;;;;4906326;29;20076;-85
2023/10/28 13:20:13;;;;;;;1.25;0.50;;;;;;;;;;4919157;29;20028;-84
2023/10/28 13:22:40;;;;;;;1.20;0.50;;;;;;;;;;4903553;29;20036;-85
2023/10/28 13:25:08;;;;;;;0.85;0.50;;;;;;;;;;4913614;29;20033;-85
2023/10/28 13:27:33;;;;;;;1.83;0.50;;;;;;;;;;4920432;29;20063;-86
2023/10/28 13:29:58;;;;;;;1.23;0.57;;;;;;;;;;4922019;29;20490;-86
2023/10/28 13:32:24;;;;;;;1.88;0.60;;;;;;;;;;4917626;29;20040;-85
2023/10/28 13:34:49;;;;;;;1.40;0.70;;;;;;;;;;4917564;29;20036;-85
2023/10/28 13:37:16;;;;;;;0.85;0.55;;;;;;;;;;4916526;29;20071;-86
2023/10/28 13:39:41;;;;;;;1.40;0.60;;;;;;;;;;4918308;29;20040;-85
2023/10/28 13:42:07;;;;;;;1.70;0.60;;;;;;;;;;4924090;29;20040;-85
2023/10/28 13:44:33;;;;;;;1.50;0.50;;;;;;;;;;4897451;29;20047;-86
2023/10/28 13:46:58;;;;;;;1.33;0.60;;;;;;;;;;4918685;29;20052;-85
2023/10/28 13:49:24;;;;;;;2.58;0.63;;;;;;;;;;4922214;29;20454;-86
2023/10/28 13:51:50;;;;;;;2.30;0.60;;;;;;;;;;4921312;29;20036;-86
2023/10/28 13:54:16;;;;;;;2.95;0.60;;;;;;;;;;4901401;29;20035;-87
2023/10/28 13:56:42;;;;;;;1.42;0.50;;;;;;;;;;4902365;29;20648;-84
2023/10/28 13:59:07;;;;;;;3.42;0.70;;;;;;;;;;4922021;29;20500;-85
2023/10/28 14:01:33;;;;;;;2.63;0.70;;;;;;;;;;4920359;29;20032;-86
2023/10/28 14:03:59;;;;;;;4.43;0.80;;;;;;;;;;4922461;29;20042;-85
2023/10/28 14:06:25;;;;;;;1.95;1.00;;;;;;;;;;4921470;29;20067;-85
2023/10/28 14:08:50;;;;;;;1.65;0.80;;;;;;;;;;4921665;29;20028;-85
2023/10/28 14:11:23;;;;;;;2.05;0.60;;;;;;;;;;4909088;29;20486;-85
2023/10/28 14:13:49;;;;;;;1.33;0.60;;;;;;;;;;4919839;29;20044;-88
2023/10/28 14:16:16;;;;;;;1.58;0.60;;;;;;;;;;4917753;29;20032;-85
2023/10/28 14:18:45;;;;;;;0.80;0.60;;;;;;;;;;4917465;29;20553;-85
2023/10/28 14:21:12;;;;;;;1.23;0.73;;;;;;;;;;4919983;29;20040;-85
2023/10/28 14:23:37;;;;;;;2.50;0.77;;;;;;;;;;4919239;29;20132;-85
2023/10/28 14:26:04;;;;;;;1.67;0.50;;;;;;;;;;4912859;29;20405;-85
2023/10/28 14:28:30;;;;;;;1.42;0.70;;;;;;;;;;4916455;29;20505;-84
2023/10/28 14:30:56;;;;;;;1.90;0.70;;;;;;;;;;4919382;29;20398;-84
2023/10/28 14:33:22;;;;;;;1.63;0.70;;;;;;;;;;4918770;29;20508;-85
2023/10/28 14:35:47;;;;;;;2.90;0.80;;;;;;;;;;4918715;29;20028;-83
2023/10/28 14:38:14;;;;;;;1.88;0.73;;;;;;;;;;4911154;29;20494;-83